Time;durP1;ratioP1;P1;durP2;ratioP2;P2;SDS_P1;SDS_P2;PMS_P1;PMS_P2;Temp;Humidity;BMP_temperature;BMP_pressure;BME280_temperature;BME280_humidity;BME280_pressure;Samples;Min_cycle;Max_cycle;Signal;HPM_P1;HPM_P2
2022/04/06 00:01:33;;;;;;;1.40;1.30;;;;;;;;;;6318129;22;20169;-84
2022/04/06 00:04:40;;;;;;;1.50;1.43;;;;;;;;;;6316771;22;20204;-85
2022/04/06 00:07:47;;;;;;;3.37;1.50;;;;;;;;;;6297612;22;20169;-85
2022/04/06 00:10:52;;;;;;;1.53;1.43;;;;;;;;;;6298114;22;20161;-83
2022/04/06 00:13:57;;;;;;;5.97;2.60;;;;;;;;;;6317755;22;20161;-84
2022/04/06 00:17:05;;;;;;;1.57;1.07;;;;;;;;;;6314234;22;20173;-85
2022/04/06 00:20:12;;;;;;;4.87;1.63;;;;;;;;;;6298738;22;20544;-86
2022/04/06 00:23:18;;;;;;;2.40;1.17;;;;;;;;;;6297107;22;20515;-83
2022/04/06 00:26:25;;;;;;;1.48;1.38;;;;;;;;;;6317612;22;20178;-85
2022/04/06 00:29:30;;;;;;;1.55;1.15;;;;;;;;;;6300060;22;20262;-86
2022/04/06 00:32:34;;;;;;;0.75;0.75;;;;;;;;;;6315906;22;20165;-86
2022/04/06 00:35:39;;;;;;;1.67;1.23;;;;;;;;;;6315959;22;20164;-85
2022/04/06 00:38:45;;;;;;;1.27;1.17;;;;;;;;;;6316154;22;20169;-85
2022/04/06 00:41:54;;;;;;;1.00;0.90;;;;;;;;;;6315287;22;20165;-84
2022/04/06 00:44:59;;;;;;;2.30;1.40;;;;;;;;;;6315213;22;20698;-83
2022/04/06 00:48:04;;;;;;;0.70;0.70;;;;;;;;;;6297435;22;20495;-86
2022/04/06 00:51:09;;;;;;;0.50;0.50;;;;;;;;;;6314311;22;20165;-85
2022/04/06 00:54:19;;;;;;;0.40;0.40;;;;;;;;;;6298632;22;20165;-85
2022/04/06 00:57:24;;;;;;;1.05;0.75;;;;;;;;;;6313901;22;20157;-84
2022/04/06 01:00:30;;;;;;;2.30;1.73;;;;;;;;;;6316429;22;20153;-85
2022/04/06 01:03:35;;;;;;;1.87;1.33;;;;;;;;;;6298980;22;20811;-87
2022/04/06 01:06:40;;;;;;;1.10;0.90;;;;;;;;;;6315848;22;20164;-84
2022/04/06 01:09:47;;;;;;;1.73;1.10;;;;;;;;;;6317380;22;20276;-86
2022/04/06 01:12:52;;;;;;;1.23;1.00;;;;;;;;;;6299112;22;20169;-85
2022/04/06 01:15:57;;;;;;;1.30;1.00;;;;;;;;;;6315521;22;20755;-85
2022/04/06 01:19:02;;;;;;;0.80;0.80;;;;;;;;;;6316713;22;20211;-85
2022/04/06 01:22:10;;;;;;;1.07;0.93;;;;;;;;;;6315474;22;20165;-85
2022/04/06 01:25:15;;;;;;;0.55;0.55;;;;;;;;;;6315397;22;20197;-84
2022/04/06 01:28:20;;;;;;;0.70;0.70;;;;;;;;;;6298734;22;20628;-85
2022/04/06 01:31:25;;;;;;;1.40;1.30;;;;;;;;;;6297838;22;20173;-85
2022/04/06 01:34:30;;;;;;;0.98;0.98;;;;;;;;;;6316605;22;20149;-85
2022/04/06 01:37:36;;;;;;;0.80;0.73;;;;;;;;;;6299085;22;20184;-86
2022/04/06 01:40:41;;;;;;;0.95;0.88;;;;;;;;;;6316500;22;20240;-85
2022/04/06 01:43:47;;;;;;;5.67;0.90;;;;;;;;;;6298639;22;20196;-86
2022/04/06 01:46:52;;;;;;;1.90;1.00;;;;;;;;;;6316685;22;20165;-84
2022/04/06 01:53:21;;;;;;;4.05;1.30;;;;;;;;;;6315597;22;20216;-85
2022/04/06 01:56:26;;;;;;;1.30;1.00;;;;;;;;;;6297295;22;20160;-84
2022/04/06 01:59:30;;;;;;;1.17;0.80;;;;;;;;;;6297208;22;20165;-84
2022/04/06 02:02:36;;;;;;;3.53;1.10;;;;;;;;;;6297640;22;20161;-85
2022/04/06 02:05:42;;;;;;;0.73;0.70;;;;;;;;;;6296666;22;20195;-85
2022/04/06 02:08:48;;;;;;;3.57;0.87;;;;;;;;;;6298214;22;20148;-86
2022/04/06 02:11:54;;;;;;;1.33;0.93;;;;;;;;;;6298712;22;20169;-85
2022/04/06 02:14:59;;;;;;;1.48;0.75;;;;;;;;;;6315846;22;20208;-83
2022/04/06 02:18:05;;;;;;;1.25;0.52;;;;;;;;;;6317148;22;20180;-85
2022/04/06 02:21:09;;;;;;;0.88;0.88;;;;;;;;;;6315360;22;20166;-84
2022/04/06 02:24:17;;;;;;;0.63;0.63;;;;;;;;;;6315281;22;20193;-84
2022/04/06 02:27:22;;;;;;;0.63;0.63;;;;;;;;;;6314281;22;20196;-84
2022/04/06 02:30:27;;;;;;;0.50;0.50;;;;;;;;;;6300287;22;20165;-84
2022/04/06 02:33:32;;;;;;;1.53;1.30;;;;;;;;;;6317538;22;20181;-85
2022/04/06 02:36:37;;;;;;;0.65;0.65;;;;;;;;;;6316421;22;20195;-84
2022/04/06 02:39:43;;;;;;;1.27;1.17;;;;;;;;;;6297437;22;20165;-84
2022/04/06 02:42:48;;;;;;;0.77;0.70;;;;;;;;;;6301077;22;20172;-84
2022/04/06 02:45:53;;;;;;;0.70;0.70;;;;;;;;;;6298213;22;20189;-84
2022/04/06 02:48:58;;;;;;;1.17;1.10;;;;;;;;;;6314295;22;20165;-84
2022/04/06 02:52:04;;;;;;;2.28;0.95;;;;;;;;;;6299549;22;20525;-86
2022/04/06 02:55:12;;;;;;;1.40;1.27;;;;;;;;;;6301648;22;20215;-86
2022/04/06 02:58:18;;;;;;;2.73;0.83;;;;;;;;;;6317914;22;20559;-84
2022/04/06 03:01:23;;;;;;;2.63;0.77;;;;;;;;;;6318538;22;20169;-85
2022/04/06 03:04:28;;;;;;;1.35;0.70;;;;;;;;;;6318083;22;20227;-86
2022/04/06 03:07:33;;;;;;;2.47;1.00;;;;;;;;;;6298820;22;20189;-87
2022/04/06 03:10:39;;;;;;;1.47;1.27;;;;;;;;;;6318259;22;20221;-84
2022/04/06 03:13:44;;;;;;;0.67;0.67;;;;;;;;;;6316127;22;20631;-85
2022/04/06 03:16:50;;;;;;;0.93;0.93;;;;;;;;;;6317182;22;20217;-84
2022/04/06 03:19:56;;;;;;;0.80;0.80;;;;;;;;;;6316452;22;20211;-83
2022/04/06 03:23:01;;;;;;;0.40;0.40;;;;;;;;;;6319209;22;20169;-83
2022/04/06 03:26:09;;;;;;;4.43;1.40;;;;;;;;;;6299126;22;20225;-85
2022/04/06 03:29:13;;;;;;;3.47;1.17;;;;;;;;;;6300045;22;20169;-86
2022/04/06 03:32:19;;;;;;;18.63;10.10;;;;;;;;;;6315614;22;20169;-84
2022/04/06 03:35:24;;;;;;;22.50;10.43;;;;;;;;;;6297869;22;20169;-84
2022/04/06 03:38:29;;;;;;;17.08;9.57;;;;;;;;;;6298738;22;20211;-84
2022/04/06 03:41:36;;;;;;;19.93;9.70;;;;;;;;;;6313957;22;20165;-84
2022/04/06 03:44:41;;;;;;;19.60;9.93;;;;;;;;;;6315377;22;20561;-85
2022/04/06 03:47:46;;;;;;;20.60;10.27;;;;;;;;;;6313818;22;20165;-85
2022/04/06 03:50:51;;;;;;;22.00;10.77;;;;;;;;;;6315657;22;20179;-86
2022/04/06 03:53:56;;;;;;;19.60;9.80;;;;;;;;;;6296584;22;20484;-84
2022/04/06 03:57:04;;;;;;;18.57;9.50;;;;;;;;;;6296987;22;20166;-86
2022/04/06 04:00:12;;;;;;;17.40;9.57;;;;;;;;;;6298282;22;20242;-85
2022/04/06 04:03:17;;;;;;;18.20;10.43;;;;;;;;;;6316398;22;20254;-86
2022/04/06 04:06:22;;;;;;;19.87;9.83;;;;;;;;;;6315805;22;20265;-85
2022/04/06 04:09:27;;;;;;;20.37;10.10;;;;;;;;;;6315353;22;20198;-86
2022/04/06 04:12:33;;;;;;;22.13;11.53;;;;;;;;;;6299207;22;20161;-86
2022/04/06 04:15:45;;;;;;;24.90;11.37;;;;;;;;;;6298546;22;20169;-85
2022/04/06 04:18:51;;;;;;;19.53;10.07;;;;;;;;;;6300980;22;20165;-86
2022/04/06 04:21:56;;;;;;;22.60;10.80;;;;;;;;;;6298766;22;20212;-84
2022/04/06 04:25:01;;;;;;;24.03;11.30;;;;;;;;;;6301273;22;20196;-85
2022/04/06 04:28:08;;;;;;;23.33;11.33;;;;;;;;;;6301063;22;20173;-84
2022/04/06 04:31:17;;;;;;;20.53;10.73;;;;;;;;;;6331786;22;20248;-87
2022/04/06 04:34:23;;;;;;;23.17;11.90;;;;;;;;;;6313891;22;20604;-84
2022/04/06 04:37:31;;;;;;;22.27;11.20;;;;;;;;;;6332612;22;20165;-84
2022/04/06 06:17:30;;;;;;;20.38;11.48;;;;;;;;;;6271540;22;20202;-86
2022/04/06 06:20:35;;;;;;;25.33;11.32;;;;;;;;;;6300065;22;20187;-84
2022/04/06 06:23:40;;;;;;;21.40;11.07;;;;;;;;;;6299341;22;20161;-84
2022/04/06 06:26:45;;;;;;;19.63;10.52;;;;;;;;;;6297830;22;20160;-85
2022/04/06 06:29:50;;;;;;;19.48;10.57;;;;;;;;;;6299075;22;20169;-86
2022/04/06 06:32:57;;;;;;;20.70;9.30;;;;;;;;;;6318346;22;20177;-83
2022/04/06 06:36:02;;;;;;;28.80;11.63;;;;;;;;;;6315176;22;20165;-86
2022/04/06 06:39:08;;;;;;;21.08;9.68;;;;;;;;;;6297872;22;20191;-85
2022/04/06 06:42:13;;;;;;;21.85;10.75;;;;;;;;;;6298004;22;20624;-85
2022/04/06 06:45:19;;;;;;;25.30;10.82;;;;;;;;;;6296037;22;20261;-86
2022/04/06 06:48:25;;;;;;;19.05;9.05;;;;;;;;;;6298793;22;20169;-84
2022/04/06 06:51:31;;;;;;;15.82;8.25;;;;;;;;;;6315997;22;20211;-85
2022/04/06 06:54:37;;;;;;;95.05;42.05;;;;;;;;;;6317302;22;20169;-83
2022/04/06 06:57:42;;;;;;;45.65;20.27;;;;;;;;;;6317895;22;20207;-84
2022/04/06 07:00:47;;;;;;;25.65;14.18;;;;;;;;;;6301006;22;20166;-85
2022/04/06 07:03:53;;;;;;;26.77;8.88;;;;;;;;;;6299662;22;20261;-84
2022/04/06 07:06:58;;;;;;;18.95;7.80;;;;;;;;;;6317348;22;20165;-85
2022/04/06 07:10:04;;;;;;;12.13;5.03;;;;;;;;;;6299741;22;20506;-85
2022/04/06 07:13:11;;;;;;;11.13;5.53;;;;;;;;;;6318648;22;20200;-85
2022/04/06 07:16:19;;;;;;;16.85;5.13;;;;;;;;;;6322184;22;20200;-85
2022/04/06 07:19:26;;;;;;;11.85;5.38;;;;;;;;;;6270640;22;20174;-83
2022/04/06 07:22:31;;;;;;;15.85;5.93;;;;;;;;;;6267610;22;20169;-86
2022/04/06 07:25:36;;;;;;;16.77;5.30;;;;;;;;;;6268429;22;20188;-86
2022/04/06 07:28:41;;;;;;;9.32;5.00;;;;;;;;;;6266013;22;20174;-85
2022/04/06 07:31:46;;;;;;;16.95;4.70;;;;;;;;;;6268424;22;20184;-85
2022/04/06 07:34:56;;;;;;;10.35;4.82;;;;;;;;;;6271166;22;20234;-85
2022/04/06 07:38:01;;;;;;;9.07;4.00;;;;;;;;;;6270974;22;20174;-85
2022/04/06 07:41:06;;;;;;;11.98;4.70;;;;;;;;;;6269451;22;20165;-84
2022/04/06 07:44:11;;;;;;;34.10;5.25;;;;;;;;;;6270847;22;20165;-85
2022/04/06 07:47:17;;;;;;;6.43;3.67;;;;;;;;;;6269011;22;20231;-85
2022/04/06 07:50:24;;;;;;;6.43;3.78;;;;;;;;;;6271444;22;20244;-87
2022/04/06 07:53:29;;;;;;;6.03;3.83;;;;;;;;;;6292328;22;20161;-86
2022/04/06 07:56:35;;;;;;;18.73;4.20;;;;;;;;;;6271596;22;20211;-87
2022/04/06 07:59:40;;;;;;;7.90;3.83;;;;;;;;;;6270956;22;20169;-85
2022/04/06 08:02:45;;;;;;;9.70;4.00;;;;;;;;;;6271884;22;20169;-85
2022/04/06 08:05:53;;;;;;;17.35;4.40;;;;;;;;;;6269980;22;20265;-86
2022/04/06 08:09:02;;;;;;;24.27;7.20;;;;;;;;;;6271407;22;20188;-86
2022/04/06 08:12:08;;;;;;;9.73;4.53;;;;;;;;;;6273691;22;20238;-86
2022/04/06 08:15:14;;;;;;;6.78;3.22;;;;;;;;;;6271766;22;20176;-85
2022/04/06 08:18:20;;;;;;;8.85;3.78;;;;;;;;;;6282241;22;20668;-87
2022/04/06 08:21:27;;;;;;;11.70;4.00;;;;;;;;;;6288256;22;20158;-86
2022/04/06 08:24:32;;;;;;;18.15;4.57;;;;;;;;;;6289696;22;20230;-84
2022/04/06 08:27:40;;;;;;;10.45;3.70;;;;;;;;;;6306845;22;20570;-86
2022/04/06 08:30:47;;;;;;;5.65;3.40;;;;;;;;;;6287606;22;20178;-84
2022/04/06 08:33:52;;;;;;;10.93;4.40;;;;;;;;;;6304709;22;20146;-88
2022/04/06 08:36:59;;;;;;;7.20;3.83;;;;;;;;;;6305533;22;20181;-86
2022/04/06 08:40:05;;;;;;;7.75;4.60;;;;;;;;;;6286409;22;20182;-85
2022/04/06 08:43:09;;;;;;;12.30;4.50;;;;;;;;;;6303960;22;20759;-86
2022/04/06 08:46:16;;;;;;;6.68;3.83;;;;;;;;;;6304385;22;20301;-86
2022/04/06 08:49:23;;;;;;;16.92;4.40;;;;;;;;;;6286120;22;20194;-86
2022/04/06 08:52:29;;;;;;;10.68;4.22;;;;;;;;;;6285609;22;20209;-85
2022/04/06 08:55:34;;;;;;;7.25;4.18;;;;;;;;;;6285406;22;20153;-86
2022/04/06 08:58:40;;;;;;;6.85;4.00;;;;;;;;;;6287641;22;20233;-86
2022/04/06 09:01:45;;;;;;;10.30;5.03;;;;;;;;;;6286856;22;20169;-87
2022/04/06 09:04:52;;;;;;;8.40;4.47;;;;;;;;;;6288123;22;20173;-85
2022/04/06 09:08:01;;;;;;;10.27;4.28;;;;;;;;;;6288143;22;20150;-83
2022/04/06 09:11:11;;;;;;;15.10;4.82;;;;;;;;;;6291158;22;20277;-85
2022/04/06 09:14:16;;;;;;;12.02;5.00;;;;;;;;;;6287924;22;20174;-86
2022/04/06 09:17:22;;;;;;;17.85;5.35;;;;;;;;;;6305629;22;20205;-86
2022/04/06 09:20:27;;;;;;;12.88;5.38;;;;;;;;;;6286991;22;20228;-85
2022/04/06 09:23:34;;;;;;;10.43;5.50;;;;;;;;;;6287842;22;20296;-85
2022/04/06 09:26:39;;;;;;;18.60;5.50;;;;;;;;;;6284247;22;20193;-86
2022/04/06 09:29:50;;;;;;;11.65;4.72;;;;;;;;;;6286691;22;20234;-84
2022/04/06 09:33:02;;;;;;;9.95;4.95;;;;;;;;;;6307333;22;20165;-85
2022/04/06 09:36:19;;;;;;;11.07;5.20;;;;;;;;;;6285931;22;20198;-84
2022/04/06 09:39:39;;;;;;;23.80;5.65;;;;;;;;;;6286646;22;20154;-84
2022/04/06 09:42:51;;;;;;;14.00;5.75;;;;;;;;;;6286106;22;20170;-86
2022/04/06 09:49:31;;;;;;;12.18;5.05;;;;;;;;;;6204718;22;20214;-86
2022/04/06 09:52:37;;;;;;;11.65;5.43;;;;;;;;;;6287072;22;20214;-85
2022/04/06 09:55:43;;;;;;;9.35;4.45;;;;;;;;;;6285234;22;20193;-86
2022/04/06 09:58:50;;;;;;;9.48;4.00;;;;;;;;;;6305028;22;20161;-86
2022/04/06 10:01:57;;;;;;;11.98;4.65;;;;;;;;;;6288773;22;20177;-86
2022/04/06 10:05:04;;;;;;;7.75;4.97;;;;;;;;;;6286523;22;20521;-84
2022/04/06 10:08:10;;;;;;;9.43;5.07;;;;;;;;;;6286003;22;20180;-86
2022/04/06 10:11:15;;;;;;;9.23;4.35;;;;;;;;;;6310290;22;20165;-86
2022/04/06 10:14:24;;;;;;;16.42;5.15;;;;;;;;;;6287430;22;20166;-86
2022/04/06 10:17:30;;;;;;;12.25;4.70;;;;;;;;;;6287548;22;20254;-85
2022/04/06 10:20:45;;;;;;;13.55;4.38;;;;;;;;;;6287445;22;20237;-85
2022/04/06 10:23:55;;;;;;;13.82;4.47;;;;;;;;;;6303993;22;20170;-85
2022/04/06 10:27:06;;;;;;;11.00;4.85;;;;;;;;;;6302580;22;20315;-86
2022/04/06 10:30:14;;;;;;;11.05;4.85;;;;;;;;;;6288417;22;20173;-85
2022/04/06 10:33:20;;;;;;;14.65;4.75;;;;;;;;;;6285548;22;20192;-85
2022/04/06 10:36:28;;;;;;;13.05;3.92;;;;;;;;;;6305129;22;20169;-84
2022/04/06 10:39:33;;;;;;;6.72;4.20;;;;;;;;;;6289111;22;20225;-85
2022/04/06 10:42:41;;;;;;;5.07;3.20;;;;;;;;;;6303805;22;20526;-88
2022/04/06 10:45:47;;;;;;;7.03;3.03;;;;;;;;;;6304170;22;20261;-86
2022/04/06 10:48:59;;;;;;;7.35;3.28;;;;;;;;;;6284860;22;20170;-85
2022/04/06 10:52:24;;;;;;;7.38;2.70;;;;;;;;;;6302595;22;20216;-86
2022/04/06 10:55:30;;;;;;;10.77;3.80;;;;;;;;;;6285285;22;20162;-85
2022/04/06 10:58:53;;;;;;;3.65;2.58;;;;;;;;;;6310844;22;20169;-87
2022/04/06 11:02:13;;;;;;;7.53;2.83;;;;;;;;;;6286589;22;20174;-85
2022/04/06 11:05:39;;;;;;;11.07;2.35;;;;;;;;;;6303188;22;20166;-86
2022/04/06 11:12:15;;;;;;;5.03;2.15;;;;;;;;;;6289104;22;20182;-85
2022/04/06 11:15:22;;;;;;;21.30;3.85;;;;;;;;;;6305837;22;20181;-86
2022/04/06 11:18:47;;;;;;;6.38;2.10;;;;;;;;;;6305214;22;20185;-85
2022/04/06 11:21:53;;;;;;;4.90;2.40;;;;;;;;;;6307242;22;20248;-87
2022/04/06 11:25:02;;;;;;;4.45;2.35;;;;;;;;;;6307425;22;20261;-87
2022/04/06 11:28:08;;;;;;;6.82;2.10;;;;;;;;;;6306497;22;20169;-86
2022/04/06 11:31:13;;;;;;;4.13;2.20;;;;;;;;;;6287358;22;20170;-85
2022/04/06 11:34:30;;;;;;;6.45;2.67;;;;;;;;;;6290146;22;20235;-83
2022/04/06 11:37:42;;;;;;;6.20;2.38;;;;;;;;;;6290751;22;20161;-86
2022/04/06 11:40:48;;;;;;;6.15;2.28;;;;;;;;;;6309921;22;20162;-85
2022/04/06 11:43:54;;;;;;;3.65;1.60;;;;;;;;;;6309866;22;20232;-86
2022/04/06 11:47:02;;;;;;;2.70;2.10;;;;;;;;;;6290308;22;20190;-85
2022/04/06 11:50:07;;;;;;;4.68;1.83;;;;;;;;;;6290349;22;20173;-82
2022/04/06 11:53:15;;;;;;;2.70;2.00;;;;;;;;;;6291804;22;20187;-86
2022/04/06 11:56:29;;;;;;;3.90;2.17;;;;;;;;;;6290011;22;20670;-86
2022/04/06 11:59:37;;;;;;;7.00;2.22;;;;;;;;;;6290511;22;20185;-85
2022/04/06 12:02:51;;;;;;;8.90;2.38;;;;;;;;;;6291009;22;20312;-87
2022/04/06 12:05:57;;;;;;;7.78;2.40;;;;;;;;;;6308390;22;20653;-86
2022/04/06 12:09:02;;;;;;;8.05;2.10;;;;;;;;;;6289927;22;20164;-86
2022/04/06 12:12:40;;;;;;;3.08;2.00;;;;;;;;;;6306938;22;20169;-87
2022/04/06 12:15:48;;;;;;;5.28;1.88;;;;;;;;;;6290490;22;20170;-87
2022/04/06 12:18:54;;;;;;;7.00;2.15;;;;;;;;;;6290796;22;20217;-84
2022/04/06 12:22:06;;;;;;;3.65;2.10;;;;;;;;;;6309538;22;20173;-87
2022/04/06 12:25:27;;;;;;;3.58;1.85;;;;;;;;;;6308396;22;20562;-86
2022/04/06 12:28:32;;;;;;;4.10;1.85;;;;;;;;;;6292009;22;20479;-87
2022/04/06 12:31:40;;;;;;;4.38;1.70;;;;;;;;;;6291480;22;20273;-86
2022/04/06 12:34:46;;;;;;;4.03;1.88;;;;;;;;;;6289153;22;20216;-84
2022/04/06 12:37:53;;;;;;;4.05;2.75;;;;;;;;;;6291314;22;20224;-87
2022/04/06 12:41:04;;;;;;;4.45;2.00;;;;;;;;;;6306453;22;20244;-87
2022/04/06 12:44:15;;;;;;;2.83;2.00;;;;;;;;;;6308208;22;20230;-85
2022/04/06 12:47:23;;;;;;;2.85;1.83;;;;;;;;;;6306933;22;20170;-85
2022/04/06 12:50:38;;;;;;;2.67;1.70;;;;;;;;;;6289307;22;20169;-87
2022/04/06 12:53:47;;;;;;;4.72;2.28;;;;;;;;;;6291533;22;20629;-86
2022/04/06 12:57:11;;;;;;;4.57;2.13;;;;;;;;;;6290726;22;20193;-86
2022/04/06 13:00:21;;;;;;;3.40;2.00;;;;;;;;;;6292752;22;20170;-87
2022/04/06 13:03:28;;;;;;;2.92;2.15;;;;;;;;;;6310055;22;20312;-85
2022/04/06 13:06:34;;;;;;;4.20;2.17;;;;;;;;;;6292849;22;20236;-86
2022/04/06 13:09:47;;;;;;;2.53;2.05;;;;;;;;;;6292731;22;20226;-83
2022/04/06 13:12:53;;;;;;;3.88;1.90;;;;;;;;;;6292030;22;20262;-86
2022/04/06 13:15:59;;;;;;;3.47;2.00;;;;;;;;;;6309503;22;20256;-86
2022/04/06 13:19:07;;;;;;;2.30;1.60;;;;;;;;;;6290742;22;20172;-86
2022/04/06 13:22:13;;;;;;;4.65;2.25;;;;;;;;;;6310382;22;20177;-85
2022/04/06 13:25:18;;;;;;;5.38;2.55;;;;;;;;;;6307674;22;20165;-86
2022/04/06 13:28:24;;;;;;;2.78;1.92;;;;;;;;;;6305483;22;20174;-84
2022/04/06 13:31:29;;;;;;;8.65;3.20;;;;;;;;;;6287566;22;20598;-86
2022/04/06 13:34:35;;;;;;;8.98;2.33;;;;;;;;;;6305823;22;20257;-85
2022/04/06 13:37:42;;;;;;;3.33;2.15;;;;;;;;;;6288981;22;20236;-85
2022/04/06 13:40:49;;;;;;;4.35;1.92;;;;;;;;;;6307831;22;20220;-87
2022/04/06 13:43:55;;;;;;;3.35;2.28;;;;;;;;;;6286925;22;20170;-84
2022/04/06 13:47:04;;;;;;;4.05;2.08;;;;;;;;;;6289484;22;20169;-87
2022/04/06 13:50:11;;;;;;;3.88;2.08;;;;;;;;;;6289080;22;20648;-88
2022/04/06 13:53:17;;;;;;;10.80;2.42;;;;;;;;;;6288457;22;20197;-84
2022/04/06 13:56:21;;;;;;;3.33;1.95;;;;;;;;;;6307851;22;20170;-86
2022/04/06 13:59:27;;;;;;;5.68;1.80;;;;;;;;;;6308568;22;20170;-85
2022/04/06 14:02:33;;;;;;;2.95;1.70;;;;;;;;;;6307283;22;20204;-86
2022/04/06 14:05:39;;;;;;;4.15;2.38;;;;;;;;;;6291690;22;20732;-86
2022/04/06 14:08:45;;;;;;;5.13;2.63;;;;;;;;;;6306538;22;20173;-85
2022/04/06 14:11:51;;;;;;;5.78;2.75;;;;;;;;;;6289441;22;20243;-86
2022/04/06 14:14:56;;;;;;;10.93;2.33;;;;;;;;;;6287580;22;20228;-87
2022/04/06 14:18:01;;;;;;;4.90;2.15;;;;;;;;;;6286727;22;20252;-86
2022/04/06 14:21:17;;;;;;;3.58;2.22;;;;;;;;;;6290269;22;20604;-86
2022/04/06 14:24:24;;;;;;;3.50;2.28;;;;;;;;;;6305533;22;20174;-87
2022/04/06 14:27:29;;;;;;;3.85;2.00;;;;;;;;;;6288378;22;20150;-86
2022/04/06 14:30:35;;;;;;;3.08;2.00;;;;;;;;;;6307461;22;20173;-85
2022/04/06 14:33:40;;;;;;;21.08;2.95;;;;;;;;;;6288579;22;20799;-86
2022/04/06 14:36:48;;;;;;;5.20;2.15;;;;;;;;;;6289089;22;20189;-86
2022/04/06 14:40:47;;;;;;;2.53;1.83;;;;;;;;;;6287898;22;20169;-86
2022/04/06 14:43:52;;;;;;;11.38;3.08;;;;;;;;;;6308828;22;20180;-86
2022/04/06 14:46:57;;;;;;;8.15;2.55;;;;;;;;;;6305981;22;20170;-85
2022/04/06 14:50:04;;;;;;;4.35;2.42;;;;;;;;;;6305184;22;20172;-86
2022/04/06 14:53:12;;;;;;;4.47;2.38;;;;;;;;;;6307027;22;20177;-87
2022/04/06 14:56:17;;;;;;;5.10;1.70;;;;;;;;;;6306989;22;20212;-87
2022/04/06 14:59:22;;;;;;;3.40;2.20;;;;;;;;;;6288170;22;20169;-87
2022/04/06 15:02:28;;;;;;;2.75;2.00;;;;;;;;;;6290247;22;20165;-87
2022/04/06 15:05:34;;;;;;;5.65;2.63;;;;;;;;;;6308550;22;20170;-86
2022/04/06 15:08:41;;;;;;;5.90;1.92;;;;;;;;;;6290371;22;20185;-87
2022/04/06 15:11:46;;;;;;;2.55;1.65;;;;;;;;;;6308671;22;20165;-85
2022/04/06 15:14:52;;;;;;;5.03;2.30;;;;;;;;;;6309175;22;20173;-86
2022/04/06 15:18:01;;;;;;;2.95;1.85;;;;;;;;;;6293065;22;20209;-83
2022/04/06 15:21:06;;;;;;;3.80;1.90;;;;;;;;;;6290341;22;20571;-85
2022/04/06 15:24:13;;;;;;;3.05;1.67;;;;;;;;;;6307978;22;20174;-86
2022/04/06 15:27:18;;;;;;;3.00;1.90;;;;;;;;;;6289256;22;20221;-85
2022/04/06 15:30:23;;;;;;;5.22;2.00;;;;;;;;;;6303368;22;20178;-86
2022/04/06 15:33:28;;;;;;;4.88;2.00;;;;;;;;;;6286040;22;20209;-86
2022/04/06 15:39:58;;;;;;;2.30;1.90;;;;;;;;;;6288598;22;20186;-86
2022/04/06 15:43:03;;;;;;;5.43;2.30;;;;;;;;;;6305053;22;20606;-86
2022/04/06 15:46:09;;;;;;;4.38;1.80;;;;;;;;;;6287415;22;20174;-85
2022/04/06 15:49:14;;;;;;;4.38;2.03;;;;;;;;;;6287951;22;20162;-86
2022/04/06 15:52:19;;;;;;;5.55;2.35;;;;;;;;;;6305738;22;20162;-87
2022/04/06 15:55:26;;;;;;;5.72;2.55;;;;;;;;;;6305241;22;20174;-84
2022/04/06 15:58:33;;;;;;;3.50;2.22;;;;;;;;;;6304193;22;20192;-85
2022/04/06 16:01:38;;;;;;;2.78;1.90;;;;;;;;;;6302760;22;20312;-85
2022/04/06 16:04:44;;;;;;;6.80;2.08;;;;;;;;;;6305249;22;20154;-85
2022/04/06 16:07:49;;;;;;;7.05;2.45;;;;;;;;;;6290099;22;20506;-84
2022/04/06 16:10:56;;;;;;;7.18;2.30;;;;;;;;;;6287482;22;20165;-86
2022/04/06 16:14:02;;;;;;;5.72;2.47;;;;;;;;;;6289046;22;20170;-85
2022/04/06 16:17:08;;;;;;;4.57;2.30;;;;;;;;;;6297978;22;20263;-85
2022/04/06 16:20:13;;;;;;;9.93;2.45;;;;;;;;;;6301290;22;20236;-85
2022/04/06 16:23:18;;;;;;;7.68;2.55;;;;;;;;;;6319190;22;20243;-85
2022/04/06 16:26:25;;;;;;;5.57;1.75;;;;;;;;;;6303090;22;20148;-85
2022/04/06 16:29:30;;;;;;;3.88;1.80;;;;;;;;;;6304090;22;20165;-86
2022/04/06 16:32:35;;;;;;;4.50;2.10;;;;;;;;;;6302377;22;20292;-86
2022/04/06 16:35:40;;;;;;;7.60;2.17;;;;;;;;;;6300378;22;20212;-82
2022/04/06 16:38:46;;;;;;;6.20;2.50;;;;;;;;;;6301981;22;20193;-87
2022/04/06 16:41:53;;;;;;;3.00;2.05;;;;;;;;;;6302981;22;20169;-85
2022/04/06 16:44:57;;;;;;;5.13;2.58;;;;;;;;;;6300651;22;20160;-85
2022/04/06 16:48:25;;;;;;;8.10;2.45;;;;;;;;;;6302006;22;20161;-84
2022/04/06 16:54:53;;;;;;;4.65;2.63;;;;;;;;;;6321673;22;20211;-85
2022/04/06 16:58:01;;;;;;;5.45;2.90;;;;;;;;;;6319525;22;20209;-84
2022/04/06 17:01:07;;;;;;;4.70;2.17;;;;;;;;;;6320951;22;20184;-85
2022/04/06 17:04:14;;;;;;;15.07;2.95;;;;;;;;;;6302168;22;20173;-86
2022/04/06 17:07:20;;;;;;;9.40;2.90;;;;;;;;;;6322358;22;20160;-84
2022/04/06 17:10:25;;;;;;;11.10;3.10;;;;;;;;;;6320696;22;20169;-86
2022/04/06 17:13:32;;;;;;;6.55;2.33;;;;;;;;;;6318418;22;20173;-85
2022/04/06 17:16:39;;;;;;;7.72;2.85;;;;;;;;;;6317253;22;20168;-87
2022/04/06 17:19:44;;;;;;;6.00;2.10;;;;;;;;;;6298899;22;20165;-86
2022/04/06 17:22:49;;;;;;;3.80;1.90;;;;;;;;;;6316896;22;20173;-83
2022/04/06 17:25:54;;;;;;;11.38;2.40;;;;;;;;;;6318534;22;20165;-85
2022/04/06 17:29:02;;;;;;;10.48;2.05;;;;;;;;;;6320692;22;20160;-85
2022/04/06 17:32:08;;;;;;;21.63;2.65;;;;;;;;;;6303654;22;20168;-85
2022/04/06 17:35:13;;;;;;;13.43;2.83;;;;;;;;;;6320222;22;20168;-86
2022/04/06 17:38:18;;;;;;;3.63;2.25;;;;;;;;;;6300119;22;20243;-88
2022/04/06 17:41:25;;;;;;;8.27;3.10;;;;;;;;;;6318280;22;20223;-85
2022/04/06 17:44:32;;;;;;;4.75;2.60;;;;;;;;;;6298111;22;20196;-84
2022/04/06 17:47:38;;;;;;;8.32;3.45;;;;;;;;;;6299455;22;20168;-86
2022/04/06 17:50:43;;;;;;;12.00;3.40;;;;;;;;;;6298819;22;20165;-86
2022/04/06 17:53:48;;;;;;;5.70;2.80;;;;;;;;;;6315668;22;20208;-85
2022/04/06 17:56:54;;;;;;;6.90;2.83;;;;;;;;;;6315094;22;20179;-84
2022/04/06 18:00:01;;;;;;;4.72;2.70;;;;;;;;;;6319523;22;20203;-86
2022/04/06 18:03:16;;;;;;;9.45;4.47;;;;;;;;;;6318809;22;20161;-85
2022/04/06 18:06:21;;;;;;;10.45;4.03;;;;;;;;;;6298457;22;20173;-86
2022/04/06 18:09:27;;;;;;;13.63;4.18;;;;;;;;;;6315652;22;20285;-85
2022/04/06 18:15:57;;;;;;;13.00;3.83;;;;;;;;;;6316525;22;20169;-85
2022/04/06 18:19:03;;;;;;;12.00;3.90;;;;;;;;;;6317151;22;20192;-85
2022/04/06 18:22:07;;;;;;;4.45;2.35;;;;;;;;;;6317818;22;20169;-85
2022/04/06 18:25:12;;;;;;;9.02;3.30;;;;;;;;;;6298530;22;20207;-84
2022/04/06 18:28:18;;;;;;;8.30;3.75;;;;;;;;;;6315619;22;20181;-85
2022/04/06 18:31:25;;;;;;;10.35;3.25;;;;;;;;;;6298784;22;20173;-85
2022/04/06 18:34:31;;;;;;;11.10;3.22;;;;;;;;;;6317058;22;20239;-85
2022/04/06 18:37:36;;;;;;;8.65;3.28;;;;;;;;;;6300863;22;20565;-84
2022/04/06 18:40:42;;;;;;;8.23;3.92;;;;;;;;;;6303005;22;20204;-85
2022/04/06 18:43:48;;;;;;;7.85;3.60;;;;;;;;;;6320244;22;20169;-87
2022/04/06 18:46:55;;;;;;;11.45;4.65;;;;;;;;;;6298825;22;20666;-84
2022/04/06 18:50:00;;;;;;;11.50;5.55;;;;;;;;;;6318862;22;20284;-85
2022/04/06 18:53:06;;;;;;;16.35;7.45;;;;;;;;;;6317804;22;20169;-85
2022/04/06 18:56:11;;;;;;;10.10;3.72;;;;;;;;;;6319044;22;20216;-84
2022/04/06 18:59:17;;;;;;;9.32;3.58;;;;;;;;;;6319977;22;20259;-85
2022/04/06 19:02:24;;;;;;;6.05;3.42;;;;;;;;;;6318043;22;20247;-84
2022/04/06 19:05:29;;;;;;;8.23;3.40;;;;;;;;;;6299592;22;20157;-85
2022/04/06 19:08:35;;;;;;;7.38;2.95;;;;;;;;;;6298914;22;20164;-84
2022/04/06 19:11:39;;;;;;;10.35;3.28;;;;;;;;;;6299967;22;20280;-86
2022/04/06 19:14:46;;;;;;;5.53;3.08;;;;;;;;;;6299043;22;20251;-85
2022/04/06 19:17:53;;;;;;;6.05;3.50;;;;;;;;;;6317802;22;20238;-84
2022/04/06 19:20:58;;;;;;;7.60;3.92;;;;;;;;;;6300540;22;20500;-86
2022/04/06 19:24:04;;;;;;;7.50;4.00;;;;;;;;;;6318606;22;20165;-87
2022/04/06 19:27:13;;;;;;;24.13;8.15;;;;;;;;;;6318264;22;20172;-84
2022/04/06 19:30:18;;;;;;;27.10;11.70;;;;;;;;;;6320245;22;20161;-85
2022/04/06 19:33:25;;;;;;;26.65;12.07;;;;;;;;;;6300129;22;20165;-86
2022/04/06 19:36:31;;;;;;;30.42;11.75;;;;;;;;;;6299924;22;20216;-84
2022/04/06 19:39:36;;;;;;;30.30;13.07;;;;;;;;;;6299983;22;20192;-85
2022/04/06 19:42:43;;;;;;;17.35;8.88;;;;;;;;;;6300631;22;20169;-84
2022/04/06 19:45:49;;;;;;;15.18;6.28;;;;;;;;;;6316241;22;20168;-85
2022/04/06 19:48:55;;;;;;;15.43;7.40;;;;;;;;;;6299359;22;20169;-84
2022/04/06 19:52:01;;;;;;;13.55;5.32;;;;;;;;;;6299635;22;20241;-85
2022/04/06 19:55:08;;;;;;;12.00;5.60;;;;;;;;;;6302657;22;20180;-85
2022/04/06 19:58:14;;;;;;;10.48;5.45;;;;;;;;;;6319789;22;20506;-85
2022/04/06 20:01:21;;;;;;;12.38;6.07;;;;;;;;;;6320846;22;20145;-86
2022/04/06 20:04:28;;;;;;;11.40;5.60;;;;;;;;;;6321970;22;20236;-87
2022/04/06 20:07:38;;;;;;;17.05;5.25;;;;;;;;;;6321624;22;20375;-85
2022/04/06 20:10:43;;;;;;;12.38;7.20;;;;;;;;;;6303398;22;20169;-83
2022/04/06 20:13:48;;;;;;;11.00;5.72;;;;;;;;;;6320413;22;20173;-86
2022/04/06 20:16:55;;;;;;;11.38;5.57;;;;;;;;;;6302309;22;20184;-85
2022/04/06 20:20:03;;;;;;;13.52;5.78;;;;;;;;;;6319908;22;20189;-86
2022/04/06 20:23:09;;;;;;;12.48;4.95;;;;;;;;;;6303186;22;20639;-86
2022/04/06 20:26:14;;;;;;;11.27;4.80;;;;;;;;;;6302698;22;20211;-86
2022/04/06 20:29:19;;;;;;;7.63;4.85;;;;;;;;;;6322192;22;20212;-84
2022/04/06 20:32:24;;;;;;;8.73;4.30;;;;;;;;;;6301056;22;20612;-84